sensor_id;sensor_type;location;lat;lon;timestamp;P1;durP1;ratioP1;P2;durP2;ratioP2
39454;SDS011;25155;41.890;23.446;2023-03-23T00:01:30;9.20;;;6.90;;
39454;SDS011;25155;41.890;23.446;2023-03-23T00:04:02;11.82;;;8.57;;
39454;SDS011;25155;41.890;23.446;2023-03-23T00:06:31;13.40;;;10.05;;
39454;SDS011;25155;41.890;23.446;2023-03-23T00:09:00;11.35;;;8.45;;
39454;SDS011;25155;41.890;23.446;2023-03-23T00:11:29;13.52;;;10.43;;
39454;SDS011;25155;41.890;23.446;2023-03-23T00:13:59;12.98;;;8.93;;
39454;SDS011;25155;41.890;23.446;2023-03-23T00:16:29;13.77;;;9.45;;
39454;SDS011;25155;41.890;23.446;2023-03-23T00:19:03;15.15;;;12.23;;
39454;SDS011;25155;41.890;23.446;2023-03-23T00:21:33;13.40;;;10.60;;
39454;SDS011;25155;41.890;23.446;2023-03-23T00:24:02;12.38;;;9.35;;
39454;SDS011;25155;41.890;23.446;2023-03-23T00:26:32;12.55;;;8.82;;
39454;SDS011;25155;41.890;23.446;2023-03-23T00:29:01;16.85;;;12.05;;
39454;SDS011;25155;41.890;23.446;2023-03-23T00:31:31;9.88;;;6.85;;
39454;SDS011;25155;41.890;23.446;2023-03-23T00:34:00;11.95;;;8.63;;
39454;SDS011;25155;41.890;23.446;2023-03-23T00:36:30;12.63;;;9.20;;
39454;SDS011;25155;41.890;23.446;2023-03-23T00:39:00;15.65;;;10.45;;
39454;SDS011;25155;41.890;23.446;2023-03-23T00:41:27;15.85;;;10.70;;
39454;SDS011;25155;41.890;23.446;2023-03-23T00:43:56;15.02;;;9.35;;
39454;SDS011;25155;41.890;23.446;2023-03-23T00:46:26;12.85;;;8.75;;
39454;SDS011;25155;41.890;23.446;2023-03-23T00:48:56;13.95;;;8.52;;
39454;SDS011;25155;41.890;23.446;2023-03-23T00:51:23;15.30;;;10.60;;
39454;SDS011;25155;41.890;23.446;2023-03-23T00:53:51;15.55;;;11.10;;
39454;SDS011;25155;41.890;23.446;2023-03-23T00:56:18;14.60;;;10.20;;
39454;SDS011;25155;41.890;23.446;2023-03-23T00:58:45;16.08;;;9.82;;
39454;SDS011;25155;41.890;23.446;2023-03-23T01:01:12;11.98;;;8.23;;
39454;SDS011;25155;41.890;23.446;2023-03-23T01:03:40;11.02;;;7.82;;
39454;SDS011;25155;41.890;23.446;2023-03-23T01:06:10;11.10;;;7.85;;
39454;SDS011;25155;41.890;23.446;2023-03-23T01:08:39;15.27;;;9.15;;
39454;SDS011;25155;41.890;23.446;2023-03-23T01:11:11;10.68;;;7.63;;
39454;SDS011;25155;41.890;23.446;2023-03-23T01:13:40;16.88;;;11.80;;
39454;SDS011;25155;41.890;23.446;2023-03-23T01:16:08;16.25;;;11.57;;
39454;SDS011;25155;41.890;23.446;2023-03-23T01:18:36;16.63;;;11.45;;
39454;SDS011;25155;41.890;23.446;2023-03-23T01:21:04;16.08;;;11.75;;
39454;SDS011;25155;41.890;23.446;2023-03-23T01:23:34;14.55;;;10.23;;
39454;SDS011;25155;41.890;23.446;2023-03-23T01:26:04;13.63;;;9.90;;
39454;SDS011;25155;41.890;23.446;2023-03-23T01:28:33;11.23;;;7.63;;
39454;SDS011;25155;41.890;23.446;2023-03-23T01:31:02;9.60;;;6.68;;
39454;SDS011;25155;41.890;23.446;2023-03-23T01:33:31;11.23;;;7.07;;
39454;SDS011;25155;41.890;23.446;2023-03-23T01:36:02;10.38;;;7.15;;
39454;SDS011;25155;41.890;23.446;2023-03-23T01:38:31;9.15;;;6.43;;
39454;SDS011;25155;41.890;23.446;2023-03-23T01:41:00;10.20;;;6.10;;
39454;SDS011;25155;41.890;23.446;2023-03-23T01:43:29;9.23;;;6.28;;
39454;SDS011;25155;41.890;23.446;2023-03-23T01:45:57;11.77;;;7.13;;
39454;SDS011;25155;41.890;23.446;2023-03-23T01:48:25;10.30;;;6.25;;
39454;SDS011;25155;41.890;23.446;2023-03-23T01:50:55;9.00;;;5.75;;
39454;SDS011;25155;41.890;23.446;2023-03-23T01:53:28;9.63;;;6.63;;
39454;SDS011;25155;41.890;23.446;2023-03-23T01:56:01;8.85;;;6.28;;
39454;SDS011;25155;41.890;23.446;2023-03-23T01:58:30;10.02;;;7.22;;
39454;SDS011;25155;41.890;23.446;2023-03-23T02:01:00;8.15;;;6.28;;
39454;SDS011;25155;41.890;23.446;2023-03-23T02:03:32;11.00;;;8.27;;
39454;SDS011;25155;41.890;23.446;2023-03-23T02:06:01;11.10;;;8.32;;
39454;SDS011;25155;41.890;23.446;2023-03-23T02:08:30;9.77;;;7.43;;
39454;SDS011;25155;41.890;23.446;2023-03-23T02:10:59;11.93;;;8.98;;
39454;SDS011;25155;41.890;23.446;2023-03-23T02:13:31;11.63;;;8.80;;
39454;SDS011;25155;41.890;23.446;2023-03-23T02:16:01;11.20;;;7.53;;
39454;SDS011;25155;41.890;23.446;2023-03-23T02:18:42;9.77;;;6.80;;
39454;SDS011;25155;41.890;23.446;2023-03-23T02:24:26;8.20;;;5.88;;
39454;SDS011;25155;41.890;23.446;2023-03-23T02:27:03;8.45;;;5.57;;
39454;SDS011;25155;41.890;23.446;2023-03-23T02:30:01;8.23;;;5.57;;
39454;SDS011;25155;41.890;23.446;2023-03-23T02:32:47;8.52;;;6.65;;
39454;SDS011;25155;41.890;23.446;2023-03-23T02:35:35;9.00;;;6.25;;
39454;SDS011;25155;41.890;23.446;2023-03-23T02:38:06;10.40;;;6.80;;
39454;SDS011;25155;41.890;23.446;2023-03-23T02:40:39;14.52;;;7.43;;
39454;SDS011;25155;41.890;23.446;2023-03-23T02:43:10;27.23;;;10.45;;
39454;SDS011;25155;41.890;23.446;2023-03-23T02:45:40;18.30;;;9.85;;
39454;SDS011;25155;41.890;23.446;2023-03-23T02:48:11;16.02;;;9.82;;
39454;SDS011;25155;41.890;23.446;2023-03-23T02:50:44;15.73;;;10.03;;
39454;SDS011;25155;41.890;23.446;2023-03-23T02:53:14;13.88;;;8.35;;
39454;SDS011;25155;41.890;23.446;2023-03-23T02:55:47;11.60;;;7.03;;
39454;SDS011;25155;41.890;23.446;2023-03-23T02:58:18;9.10;;;6.53;;
39454;SDS011;25155;41.890;23.446;2023-03-23T03:00:48;9.55;;;6.47;;
39454;SDS011;25155;41.890;23.446;2023-03-23T03:03:16;10.10;;;6.57;;
39454;SDS011;25155;41.890;23.446;2023-03-23T03:05:51;9.20;;;6.93;;
39454;SDS011;25155;41.890;23.446;2023-03-23T03:08:25;9.73;;;6.93;;
39454;SDS011;25155;41.890;23.446;2023-03-23T03:11:01;9.40;;;6.45;;
39454;SDS011;25155;41.890;23.446;2023-03-23T03:13:33;9.93;;;6.80;;
39454;SDS011;25155;41.890;23.446;2023-03-23T03:16:13;9.45;;;6.78;;
39454;SDS011;25155;41.890;23.446;2023-03-23T03:18:49;9.20;;;6.03;;
39454;SDS011;25155;41.890;23.446;2023-03-23T03:21:25;15.05;;;8.88;;
39454;SDS011;25155;41.890;23.446;2023-03-23T03:23:55;17.73;;;7.70;;
39454;SDS011;25155;41.890;23.446;2023-03-23T03:28:54;6.90;;;5.07;;
39454;SDS011;25155;41.890;23.446;2023-03-23T03:31:23;7.15;;;4.93;;
39454;SDS011;25155;41.890;23.446;2023-03-23T03:33:54;9.05;;;5.22;;
39454;SDS011;25155;41.890;23.446;2023-03-23T03:36:24;7.78;;;5.35;;
39454;SDS011;25155;41.890;23.446;2023-03-23T03:39:00;8.07;;;5.03;;
39454;SDS011;25155;41.890;23.446;2023-03-23T03:41:33;9.90;;;6.18;;
39454;SDS011;25155;41.890;23.446;2023-03-23T03:44:01;11.23;;;6.38;;
39454;SDS011;25155;41.890;23.446;2023-03-23T03:46:28;17.02;;;9.27;;
39454;SDS011;25155;41.890;23.446;2023-03-23T03:48:56;14.88;;;9.95;;
39454;SDS011;25155;41.890;23.446;2023-03-23T03:51:26;11.18;;;7.47;;
39454;SDS011;25155;41.890;23.446;2023-03-23T03:53:55;20.77;;;7.70;;
39454;SDS011;25155;41.890;23.446;2023-03-23T03:56:22;10.57;;;7.20;;
39454;SDS011;25155;41.890;23.446;2023-03-23T03:58:51;9.05;;;6.72;;
39454;SDS011;25155;41.890;23.446;2023-03-23T04:01:20;8.98;;;6.63;;
39454;SDS011;25155;41.890;23.446;2023-03-23T04:03:49;9.93;;;7.47;;
39454;SDS011;25155;41.890;23.446;2023-03-23T04:06:17;15.98;;;8.48;;
39454;SDS011;25155;41.890;23.446;2023-03-23T04:08:46;11.63;;;8.20;;
39454;SDS011;25155;41.890;23.446;2023-03-23T04:11:14;17.40;;;10.32;;
39454;SDS011;25155;41.890;23.446;2023-03-23T04:13:42;18.02;;;11.70;;
39454;SDS011;25155;41.890;23.446;2023-03-23T04:16:09;16.67;;;11.90;;
39454;SDS011;25155;41.890;23.446;2023-03-23T04:18:37;16.73;;;11.20;;
39454;SDS011;25155;41.890;23.446;2023-03-23T04:21:04;15.30;;;10.60;;
39454;SDS011;25155;41.890;23.446;2023-03-23T04:23:33;16.45;;;11.52;;
39454;SDS011;25155;41.890;23.446;2023-03-23T04:26:03;15.65;;;10.10;;
39454;SDS011;25155;41.890;23.446;2023-03-23T04:28:31;13.23;;;9.27;;
39454;SDS011;25155;41.890;23.446;2023-03-23T04:30:59;15.77;;;10.90;;
39454;SDS011;25155;41.890;23.446;2023-03-23T04:33:28;14.13;;;10.32;;
39454;SDS011;25155;41.890;23.446;2023-03-23T04:35:56;12.98;;;9.23;;
39454;SDS011;25155;41.890;23.446;2023-03-23T04:38:28;16.40;;;11.32;;
39454;SDS011;25155;41.890;23.446;2023-03-23T04:40:58;20.25;;;13.07;;
39454;SDS011;25155;41.890;23.446;2023-03-23T04:43:28;16.20;;;11.45;;
39454;SDS011;25155;41.890;23.446;2023-03-23T04:45:58;14.43;;;9.77;;
39454;SDS011;25155;41.890;23.446;2023-03-23T04:48:34;18.23;;;12.88;;
39454;SDS011;25155;41.890;23.446;2023-03-23T04:51:05;49.15;;;13.60;;
39454;SDS011;25155;41.890;23.446;2023-03-23T04:53:32;14.00;;;10.07;;
39454;SDS011;25155;41.890;23.446;2023-03-23T04:56:01;59.80;;;11.30;;
39454;SDS011;25155;41.890;23.446;2023-03-23T04:58:30;53.67;;;9.30;;
39454;SDS011;25155;41.890;23.446;2023-03-23T05:00:59;24.85;;;7.03;;
39454;SDS011;25155;41.890;23.446;2023-03-23T05:03:27;10.55;;;7.65;;
39454;SDS011;25155;41.890;23.446;2023-03-23T05:05:54;11.15;;;7.70;;
39454;SDS011;25155;41.890;23.446;2023-03-23T05:08:21;14.35;;;9.75;;
39454;SDS011;25155;41.890;23.446;2023-03-23T05:10:51;12.43;;;9.23;;
39454;SDS011;25155;41.890;23.446;2023-03-23T05:13:18;15.30;;;10.13;;
39454;SDS011;25155;41.890;23.446;2023-03-23T05:15:47;12.93;;;8.80;;
39454;SDS011;25155;41.890;23.446;2023-03-23T05:18:15;11.70;;;8.77;;
39454;SDS011;25155;41.890;23.446;2023-03-23T05:20:43;11.68;;;8.23;;
39454;SDS011;25155;41.890;23.446;2023-03-23T05:23:11;9.98;;;7.00;;
39454;SDS011;25155;41.890;23.446;2023-03-23T05:25:39;9.60;;;6.85;;
39454;SDS011;25155;41.890;23.446;2023-03-23T05:28:07;9.30;;;6.07;;
39454;SDS011;25155;41.890;23.446;2023-03-23T05:30:36;7.78;;;5.65;;
39454;SDS011;25155;41.890;23.446;2023-03-23T05:33:07;7.95;;;5.00;;
39454;SDS011;25155;41.890;23.446;2023-03-23T05:35:34;8.07;;;5.50;;
39454;SDS011;25155;41.890;23.446;2023-03-23T05:38:01;9.63;;;6.72;;
39454;SDS011;25155;41.890;23.446;2023-03-23T05:40:28;9.82;;;5.95;;
39454;SDS011;25155;41.890;23.446;2023-03-23T05:42:56;8.05;;;5.88;;
39454;SDS011;25155;41.890;23.446;2023-03-23T05:45:24;8.98;;;5.97;;
39454;SDS011;25155;41.890;23.446;2023-03-23T05:47:52;11.30;;;8.05;;
39454;SDS011;25155;41.890;23.446;2023-03-23T05:50:21;10.55;;;7.45;;
39454;SDS011;25155;41.890;23.446;2023-03-23T05:52:48;10.95;;;7.55;;
39454;SDS011;25155;41.890;23.446;2023-03-23T05:55:16;12.88;;;7.80;;
39454;SDS011;25155;41.890;23.446;2023-03-23T05:57:44;10.13;;;7.60;;
39454;SDS011;25155;41.890;23.446;2023-03-23T06:00:11;11.05;;;7.95;;
39454;SDS011;25155;41.890;23.446;2023-03-23T06:02:45;8.15;;;6.22;;
39454;SDS011;25155;41.890;23.446;2023-03-23T06:05:14;8.13;;;6.18;;
39454;SDS011;25155;41.890;23.446;2023-03-23T06:07:44;10.80;;;8.18;;
39454;SDS011;25155;41.890;23.446;2023-03-23T06:10:12;10.75;;;7.40;;
39454;SDS011;25155;41.890;23.446;2023-03-23T06:12:40;8.07;;;5.90;;
39454;SDS011;25155;41.890;23.446;2023-03-23T06:15:08;9.20;;;5.90;;
39454;SDS011;25155;41.890;23.446;2023-03-23T06:17:36;7.68;;;5.30;;
39454;SDS011;25155;41.890;23.446;2023-03-23T06:20:04;11.60;;;8.90;;
39454;SDS011;25155;41.890;23.446;2023-03-23T06:22:36;14.02;;;9.95;;
39454;SDS011;25155;41.890;23.446;2023-03-23T06:25:07;20.40;;;13.10;;
39454;SDS011;25155;41.890;23.446;2023-03-23T06:27:36;20.77;;;13.63;;
39454;SDS011;25155;41.890;23.446;2023-03-23T06:30:05;27.27;;;18.10;;
39454;SDS011;25155;41.890;23.446;2023-03-23T06:32:33;25.92;;;17.85;;
39454;SDS011;25155;41.890;23.446;2023-03-23T06:35:00;26.48;;;17.17;;
39454;SDS011;25155;41.890;23.446;2023-03-23T06:37:28;28.60;;;17.83;;
39454;SDS011;25155;41.890;23.446;2023-03-23T06:39:55;35.42;;;22.30;;
39454;SDS011;25155;41.890;23.446;2023-03-23T06:42:25;33.20;;;22.00;;
39454;SDS011;25155;41.890;23.446;2023-03-23T06:44:52;71.97;;;22.48;;
39454;SDS011;25155;41.890;23.446;2023-03-23T06:47:22;33.55;;;21.20;;
39454;SDS011;25155;41.890;23.446;2023-03-23T06:49:49;37.33;;;23.90;;
39454;SDS011;25155;41.890;23.446;2023-03-23T06:52:16;29.63;;;18.85;;
39454;SDS011;25155;41.890;23.446;2023-03-23T06:54:44;20.13;;;14.00;;
39454;SDS011;25155;41.890;23.446;2023-03-23T06:57:11;19.40;;;13.20;;
39454;SDS011;25155;41.890;23.446;2023-03-23T06:59:39;21.67;;;13.55;;
39454;SDS011;25155;41.890;23.446;2023-03-23T07:02:08;19.77;;;14.13;;
39454;SDS011;25155;41.890;23.446;2023-03-23T07:04:36;16.30;;;10.95;;
39454;SDS011;25155;41.890;23.446;2023-03-23T07:07:04;20.25;;;14.00;;
39454;SDS011;25155;41.890;23.446;2023-03-23T07:09:31;28.08;;;17.77;;
39454;SDS011;25155;41.890;23.446;2023-03-23T07:11:58;28.52;;;17.52;;
39454;SDS011;25155;41.890;23.446;2023-03-23T07:14:25;28.15;;;18.30;;
39454;SDS011;25155;41.890;23.446;2023-03-23T07:16:54;28.77;;;19.10;;
39454;SDS011;25155;41.890;23.446;2023-03-23T07:19:21;32.95;;;21.45;;
39454;SDS011;25155;41.890;23.446;2023-03-23T07:21:48;34.55;;;23.25;;
39454;SDS011;25155;41.890;23.446;2023-03-23T07:24:16;32.25;;;20.23;;
39454;SDS011;25155;41.890;23.446;2023-03-23T07:26:44;35.20;;;22.75;;
39454;SDS011;25155;41.890;23.446;2023-03-23T07:29:11;29.45;;;19.90;;
39454;SDS011;25155;41.890;23.446;2023-03-23T07:31:38;27.42;;;18.88;;
39454;SDS011;25155;41.890;23.446;2023-03-23T07:34:07;29.60;;;20.23;;
39454;SDS011;25155;41.890;23.446;2023-03-23T07:36:35;32.03;;;20.80;;
39454;SDS011;25155;41.890;23.446;2023-03-23T07:39:03;32.40;;;22.42;;
39454;SDS011;25155;41.890;23.446;2023-03-23T07:41:31;29.38;;;20.23;;
39454;SDS011;25155;41.890;23.446;2023-03-23T07:43:59;30.70;;;22.15;;
39454;SDS011;25155;41.890;23.446;2023-03-23T07:46:26;32.40;;;22.27;;
39454;SDS011;25155;41.890;23.446;2023-03-23T07:48:53;37.42;;;26.20;;
39454;SDS011;25155;41.890;23.446;2023-03-23T07:51:23;41.10;;;28.27;;
39454;SDS011;25155;41.890;23.446;2023-03-23T07:53:52;44.80;;;30.73;;
39454;SDS011;25155;41.890;23.446;2023-03-23T07:56:20;48.13;;;33.38;;
39454;SDS011;25155;41.890;23.446;2023-03-23T07:58:47;63.63;;;43.05;;
39454;SDS011;25155;41.890;23.446;2023-03-23T08:01:14;57.05;;;39.90;;
39454;SDS011;25155;41.890;23.446;2023-03-23T08:03:42;54.80;;;37.97;;
39454;SDS011;25155;41.890;23.446;2023-03-23T08:06:09;69.63;;;46.85;;
39454;SDS011;25155;41.890;23.446;2023-03-23T08:08:38;66.32;;;44.78;;
39454;SDS011;25155;41.890;23.446;2023-03-23T08:11:06;65.70;;;42.70;;
39454;SDS011;25155;41.890;23.446;2023-03-23T08:13:33;60.10;;;39.50;;
39454;SDS011;25155;41.890;23.446;2023-03-23T08:16:00;52.78;;;35.17;;
39454;SDS011;25155;41.890;23.446;2023-03-23T08:18:28;58.28;;;38.38;;
39454;SDS011;25155;41.890;23.446;2023-03-23T08:20:56;61.60;;;42.20;;
39454;SDS011;25155;41.890;23.446;2023-03-23T08:23:24;58.78;;;37.50;;
39454;SDS011;25155;41.890;23.446;2023-03-23T08:25:53;55.30;;;36.95;;
39454;SDS011;25155;41.890;23.446;2023-03-23T08:28:21;41.03;;;28.55;;
39454;SDS011;25155;41.890;23.446;2023-03-23T08:30:48;31.85;;;22.65;;
39454;SDS011;25155;41.890;23.446;2023-03-23T08:33:15;45.25;;;31.27;;
39454;SDS011;25155;41.890;23.446;2023-03-23T08:35:43;26.50;;;18.63;;
39454;SDS011;25155;41.890;23.446;2023-03-23T08:38:10;19.23;;;12.02;;
39454;SDS011;25155;41.890;23.446;2023-03-23T08:40:38;20.35;;;13.73;;
39454;SDS011;25155;41.890;23.446;2023-03-23T08:43:06;21.52;;;14.75;;
39454;SDS011;25155;41.890;23.446;2023-03-23T08:45:34;18.48;;;13.20;;
39454;SDS011;25155;41.890;23.446;2023-03-23T08:48:02;15.85;;;10.68;;
39454;SDS011;25155;41.890;23.446;2023-03-23T08:50:29;16.27;;;11.23;;
39454;SDS011;25155;41.890;23.446;2023-03-23T08:52:57;15.35;;;11.10;;
39454;SDS011;25155;41.890;23.446;2023-03-23T08:55:24;19.02;;;12.52;;
39454;SDS011;25155;41.890;23.446;2023-03-23T08:57:53;17.15;;;12.40;;
39454;SDS011;25155;41.890;23.446;2023-03-23T09:00:21;19.55;;;12.98;;
39454;SDS011;25155;41.890;23.446;2023-03-23T09:05:20;16.95;;;11.27;;
39454;SDS011;25155;41.890;23.446;2023-03-23T09:07:50;15.65;;;10.60;;
39454;SDS011;25155;41.890;23.446;2023-03-23T09:10:19;15.52;;;10.43;;
39454;SDS011;25155;41.890;23.446;2023-03-23T09:12:47;10.85;;;8.00;;
39454;SDS011;25155;41.890;23.446;2023-03-23T09:15:15;11.88;;;9.40;;
39454;SDS011;25155;41.890;23.446;2023-03-23T09:17:46;12.90;;;8.98;;
39454;SDS011;25155;41.890;23.446;2023-03-23T09:20:16;10.13;;;7.05;;
39454;SDS011;25155;41.890;23.446;2023-03-23T09:22:46;10.93;;;7.38;;
39454;SDS011;25155;41.890;23.446;2023-03-23T09:25:15;7.07;;;5.13;;
39454;SDS011;25155;41.890;23.446;2023-03-23T09:27:48;5.45;;;3.60;;
39454;SDS011;25155;41.890;23.446;2023-03-23T09:30:18;7.47;;;5.50;;
39454;SDS011;25155;41.890;23.446;2023-03-23T09:32:47;9.32;;;6.15;;
39454;SDS011;25155;41.890;23.446;2023-03-23T09:35:14;7.72;;;5.70;;
39454;SDS011;25155;41.890;23.446;2023-03-23T09:37:43;8.68;;;5.68;;
39454;SDS011;25155;41.890;23.446;2023-03-23T09:40:12;6.97;;;4.68;;
39454;SDS011;25155;41.890;23.446;2023-03-23T09:42:53;8.15;;;5.85;;
39454;SDS011;25155;41.890;23.446;2023-03-23T09:45:43;7.95;;;4.93;;
39454;SDS011;25155;41.890;23.446;2023-03-23T09:48:26;7.18;;;5.22;;
39454;SDS011;25155;41.890;23.446;2023-03-23T09:51:08;7.60;;;5.53;;
39454;SDS011;25155;41.890;23.446;2023-03-23T09:56:11;4.68;;;3.10;;
39454;SDS011;25155;41.890;23.446;2023-03-23T09:58:43;6.80;;;3.60;;
39454;SDS011;25155;41.890;23.446;2023-03-23T10:01:15;13.20;;;8.40;;
39454;SDS011;25155;41.890;23.446;2023-03-23T10:03:51;6.55;;;4.40;;
39454;SDS011;25155;41.890;23.446;2023-03-23T10:06:25;6.97;;;4.93;;
39454;SDS011;25155;41.890;23.446;2023-03-23T10:08:53;7.68;;;4.97;;
39454;SDS011;25155;41.890;23.446;2023-03-23T10:14:02;5.78;;;4.05;;
39454;SDS011;25155;41.890;23.446;2023-03-23T10:16:48;5.15;;;3.45;;
39454;SDS011;25155;41.890;23.446;2023-03-23T10:19:26;6.22;;;3.97;;
39454;SDS011;25155;41.890;23.446;2023-03-23T10:21:59;4.25;;;2.80;;
39454;SDS011;25155;41.890;23.446;2023-03-23T10:24:32;3.85;;;2.50;;
39454;SDS011;25155;41.890;23.446;2023-03-23T10:27:06;4.13;;;2.70;;
39454;SDS011;25155;41.890;23.446;2023-03-23T10:29:46;4.47;;;2.90;;
39454;SDS011;25155;41.890;23.446;2023-03-23T10:32:19;4.22;;;2.80;;
39454;SDS011;25155;41.890;23.446;2023-03-23T10:34:55;4.15;;;2.67;;
39454;SDS011;25155;41.890;23.446;2023-03-23T10:37:26;4.43;;;2.50;;
39454;SDS011;25155;41.890;23.446;2023-03-23T10:40:03;3.38;;;2.28;;
39454;SDS011;25155;41.890;23.446;2023-03-23T10:42:36;3.85;;;2.38;;
39454;SDS011;25155;41.890;23.446;2023-03-23T10:45:10;4.15;;;2.42;;
39454;SDS011;25155;41.890;23.446;2023-03-23T10:47:43;3.90;;;2.33;;
39454;SDS011;25155;41.890;23.446;2023-03-23T10:50:16;2.80;;;2.10;;
39454;SDS011;25155;41.890;23.446;2023-03-23T10:52:49;3.03;;;2.20;;
39454;SDS011;25155;41.890;23.446;2023-03-23T10:55:19;3.63;;;2.20;;
39454;SDS011;25155;41.890;23.446;2023-03-23T10:57:59;3.65;;;2.70;;
39454;SDS011;25155;41.890;23.446;2023-03-23T11:00:27;3.88;;;2.40;;
39454;SDS011;25155;41.890;23.446;2023-03-23T11:03:00;3.70;;;2.40;;
39454;SDS011;25155;41.890;23.446;2023-03-23T11:05:34;3.42;;;2.30;;
39454;SDS011;25155;41.890;23.446;2023-03-23T11:08:10;4.72;;;3.10;;
39454;SDS011;25155;41.890;23.446;2023-03-23T11:10:40;3.80;;;2.50;;
39454;SDS011;25155;41.890;23.446;2023-03-23T11:13:14;3.55;;;2.00;;
39454;SDS011;25155;41.890;23.446;2023-03-23T11:15:45;2.97;;;2.10;;
39454;SDS011;25155;41.890;23.446;2023-03-23T11:18:18;3.47;;;2.00;;
39454;SDS011;25155;41.890;23.446;2023-03-23T11:20:51;3.28;;;2.15;;
39454;SDS011;25155;41.890;23.446;2023-03-23T11:23:23;3.45;;;2.17;;
39454;SDS011;25155;41.890;23.446;2023-03-23T11:25:55;3.28;;;2.25;;
39454;SDS011;25155;41.890;23.446;2023-03-23T11:28:29;3.13;;;2.00;;
39454;SDS011;25155;41.890;23.446;2023-03-23T11:31:00;4.10;;;2.60;;
39454;SDS011;25155;41.890;23.446;2023-03-23T11:33:30;3.78;;;2.58;;
39454;SDS011;25155;41.890;23.446;2023-03-23T11:36:06;3.30;;;2.20;;
39454;SDS011;25155;41.890;23.446;2023-03-23T11:38:35;4.93;;;3.17;;
39454;SDS011;25155;41.890;23.446;2023-03-23T11:41:08;4.10;;;2.70;;
39454;SDS011;25155;41.890;23.446;2023-03-23T11:43:44;4.25;;;2.70;;
39454;SDS011;25155;41.890;23.446;2023-03-23T11:46:17;3.65;;;2.70;;
39454;SDS011;25155;41.890;23.446;2023-03-23T11:48:54;4.57;;;2.88;;
39454;SDS011;25155;41.890;23.446;2023-03-23T11:51:29;4.53;;;3.00;;
39454;SDS011;25155;41.890;23.446;2023-03-23T11:54:02;4.07;;;2.70;;
39454;SDS011;25155;41.890;23.446;2023-03-23T11:56:36;4.93;;;2.78;;
39454;SDS011;25155;41.890;23.446;2023-03-23T11:59:09;4.70;;;3.10;;
39454;SDS011;25155;41.890;23.446;2023-03-23T12:01:51;4.30;;;3.00;;
39454;SDS011;25155;41.890;23.446;2023-03-23T12:04:26;4.63;;;2.95;;
39454;SDS011;25155;41.890;23.446;2023-03-23T12:09:59;5.63;;;2.95;;
39454;SDS011;25155;41.890;23.446;2023-03-23T12:12:38;6.25;;;3.17;;
39454;SDS011;25155;41.890;23.446;2023-03-23T12:15:16;5.38;;;3.13;;
39454;SDS011;25155;41.890;23.446;2023-03-23T12:17:51;4.07;;;2.67;;
39454;SDS011;25155;41.890;23.446;2023-03-23T12:20:27;4.50;;;3.05;;
39454;SDS011;25155;41.890;23.446;2023-03-23T12:23:06;4.22;;;3.10;;
39454;SDS011;25155;41.890;23.446;2023-03-23T12:25:47;4.88;;;3.00;;
39454;SDS011;25155;41.890;23.446;2023-03-23T12:28:35;5.55;;;3.42;;
39454;SDS011;25155;41.890;23.446;2023-03-23T12:31:11;7.07;;;3.42;;
39454;SDS011;25155;41.890;23.446;2023-03-23T12:33:48;5.10;;;3.17;;
39454;SDS011;25155;41.890;23.446;2023-03-23T12:36:24;4.32;;;2.88;;
39454;SDS011;25155;41.890;23.446;2023-03-23T12:39:14;4.88;;;3.42;;
39454;SDS011;25155;41.890;23.446;2023-03-23T12:42:11;4.57;;;3.10;;
39454;SDS011;25155;41.890;23.446;2023-03-23T12:44:45;4.28;;;2.97;;
39454;SDS011;25155;41.890;23.446;2023-03-23T12:47:27;5.05;;;3.50;;
39454;SDS011;25155;41.890;23.446;2023-03-23T12:50:01;5.03;;;3.30;;
39454;SDS011;25155;41.890;23.446;2023-03-23T12:52:37;5.00;;;3.53;;
39454;SDS011;25155;41.890;23.446;2023-03-23T12:55:15;5.10;;;3.60;;
39454;SDS011;25155;41.890;23.446;2023-03-23T12:57:49;4.80;;;3.50;;
39454;SDS011;25155;41.890;23.446;2023-03-23T13:00:25;5.95;;;3.45;;
39454;SDS011;25155;41.890;23.446;2023-03-23T13:05:27;4.60;;;3.13;;
39454;SDS011;25155;41.890;23.446;2023-03-23T13:08:04;5.03;;;3.20;;
39454;SDS011;25155;41.890;23.446;2023-03-23T13:10:40;5.05;;;3.47;;
39454;SDS011;25155;41.890;23.446;2023-03-23T13:13:13;5.10;;;3.47;;
39454;SDS011;25155;41.890;23.446;2023-03-23T13:15:46;7.43;;;3.75;;
39454;SDS011;25155;41.890;23.446;2023-03-23T13:18:24;6.55;;;3.75;;
39454;SDS011;25155;41.890;23.446;2023-03-23T13:21:04;5.75;;;3.63;;
39454;SDS011;25155;41.890;23.446;2023-03-23T13:23:37;5.30;;;3.72;;
39454;SDS011;25155;41.890;23.446;2023-03-23T13:26:09;5.03;;;3.65;;
39454;SDS011;25155;41.890;23.446;2023-03-23T13:28:49;5.25;;;3.30;;
39454;SDS011;25155;41.890;23.446;2023-03-23T13:31:22;5.30;;;3.60;;
39454;SDS011;25155;41.890;23.446;2023-03-23T13:33:57;5.32;;;4.00;;
39454;SDS011;25155;41.890;23.446;2023-03-23T13:36:29;5.20;;;3.55;;
39454;SDS011;25155;41.890;23.446;2023-03-23T13:38:59;6.20;;;4.40;;
39454;SDS011;25155;41.890;23.446;2023-03-23T13:41:29;5.63;;;3.80;;
39454;SDS011;25155;41.890;23.446;2023-03-23T13:44:05;5.88;;;4.32;;
39454;SDS011;25155;41.890;23.446;2023-03-23T13:46:42;5.72;;;4.05;;
39454;SDS011;25155;41.890;23.446;2023-03-23T13:49:21;5.18;;;3.80;;
39454;SDS011;25155;41.890;23.446;2023-03-23T13:52:13;5.57;;;4.10;;
39454;SDS011;25155;41.890;23.446;2023-03-23T13:54:44;6.60;;;4.32;;
39454;SDS011;25155;41.890;23.446;2023-03-23T13:57:23;8.32;;;4.15;;
39454;SDS011;25155;41.890;23.446;2023-03-23T13:59:55;5.20;;;3.95;;
39454;SDS011;25155;41.890;23.446;2023-03-23T14:02:30;5.70;;;4.18;;
39454;SDS011;25155;41.890;23.446;2023-03-23T14:05:09;6.07;;;4.32;;
39454;SDS011;25155;41.890;23.446;2023-03-23T14:07:53;6.25;;;3.85;;
39454;SDS011;25155;41.890;23.446;2023-03-23T14:10:25;4.95;;;3.75;;
39454;SDS011;25155;41.890;23.446;2023-03-23T14:13:02;7.65;;;3.88;;
39454;SDS011;25155;41.890;23.446;2023-03-23T14:15:37;4.90;;;3.75;;
39454;SDS011;25155;41.890;23.446;2023-03-23T14:18:11;6.03;;;4.28;;
39454;SDS011;25155;41.890;23.446;2023-03-23T14:20:41;4.82;;;3.70;;
39454;SDS011;25155;41.890;23.446;2023-03-23T14:23:14;4.90;;;3.83;;
39454;SDS011;25155;41.890;23.446;2023-03-23T14:25:42;5.38;;;3.95;;
39454;SDS011;25155;41.890;23.446;2023-03-23T14:28:18;6.05;;;3.95;;
39454;SDS011;25155;41.890;23.446;2023-03-23T14:30:48;5.38;;;3.80;;
39454;SDS011;25155;41.890;23.446;2023-03-23T14:33:19;6.35;;;4.40;;
39454;SDS011;25155;41.890;23.446;2023-03-23T14:35:46;5.55;;;3.90;;
39454;SDS011;25155;41.890;23.446;2023-03-23T14:38:15;6.40;;;3.90;;
39454;SDS011;25155;41.890;23.446;2023-03-23T14:40:45;5.65;;;3.65;;
39454;SDS011;25155;41.890;23.446;2023-03-23T14:43:14;6.00;;;4.00;;
39454;SDS011;25155;41.890;23.446;2023-03-23T14:45:54;5.80;;;4.35;;
39454;SDS011;25155;41.890;23.446;2023-03-23T14:48:24;5.00;;;4.00;;
39454;SDS011;25155;41.890;23.446;2023-03-23T14:50:55;5.57;;;3.67;;
39454;SDS011;25155;41.890;23.446;2023-03-23T14:53:24;6.18;;;4.25;;
39454;SDS011;25155;41.890;23.446;2023-03-23T14:55:58;4.88;;;3.75;;
39454;SDS011;25155;41.890;23.446;2023-03-23T14:58:29;5.93;;;4.10;;
39454;SDS011;25155;41.890;23.446;2023-03-23T15:00:56;6.20;;;4.18;;
39454;SDS011;25155;41.890;23.446;2023-03-23T15:03:26;5.38;;;3.65;;
39454;SDS011;25155;41.890;23.446;2023-03-23T15:05:58;5.00;;;3.65;;